Time;durP1;ratioP1;P1;durP2;ratioP2;P2;SDS_P1;SDS_P2;PMS_P1;PMS_P2;Temp;Humidity;BMP_temperature;BMP_pressure;BME280_temperature;BME280_humidity;BME280_pressure;Samples;Min_cycle;Max_cycle;Signal;HPM_P1;HPM_P2
2022/08/15 00:00:48;;;;;;;13.27;12.10;;;21.20;99.90;;;;;;5037537;28;20041;-70
2022/08/15 00:03:24;;;;;;;13.05;11.85;;;21.20;99.90;;;;;;5036269;28;20091;-70
2022/08/15 00:05:51;;;;;;;12.50;11.40;;;21.10;99.90;;;;;;5031313;28;20395;-69
2022/08/15 00:08:17;;;;;;;12.23;11.20;;;21.00;99.90;;;;;;5031053;28;20037;-70
2022/08/15 00:10:44;;;;;;;12.55;11.55;;;21.00;99.90;;;;;;5030003;28;20041;-69
2022/08/15 00:13:21;;;;;;;13.65;12.43;;;21.00;99.90;;;;;;5028824;28;20045;-69
2022/08/15 00:15:48;;;;;;;12.50;11.43;;;21.00;99.90;;;;;;5036112;28;20113;-69
2022/08/15 00:18:15;;;;;;;12.38;11.27;;;21.00;99.90;;;;;;5032608;28;20037;-69
2022/08/15 00:20:41;;;;;;;13.00;11.88;;;20.90;99.90;;;;;;5035682;28;20359;-69
2022/08/15 00:23:13;;;;;;;13.05;11.95;;;20.80;99.90;;;;;;5032514;28;20148;-70
2022/08/15 00:25:40;;;;;;;12.98;11.70;;;20.70;99.90;;;;;;5018448;28;20072;-70
2022/08/15 00:28:07;;;;;;;13.23;11.93;;;20.80;99.90;;;;;;5018711;28;20037;-69
2022/08/15 00:30:38;;;;;;;13.27;12.10;;;20.80;99.90;;;;;;5028239;28;20038;-70
2022/08/15 00:33:04;;;;;;;13.53;12.37;;;20.70;99.90;;;;;;5030596;28;20033;-70
2022/08/15 00:35:36;;;;;;;14.55;13.25;;;20.50;99.90;;;;;;5027663;28;20307;-69
2022/08/15 00:38:16;;;;;;;13.40;12.18;;;20.40;99.90;;;;;;5032501;28;20493;-69
2022/08/15 00:43:31;;;;;;;13.25;12.15;;;20.40;99.90;;;;;;5033108;28;20041;-70
2022/08/15 00:45:56;;;;;;;12.70;11.52;;;20.40;99.90;;;;;;5019707;28;20041;-70
2022/08/15 00:51:24;;;;;;;12.30;11.20;;;20.50;99.90;;;;;;5024560;28;20053;-70
2022/08/15 00:53:55;;;;;;;13.15;11.93;;;20.50;99.90;;;;;;5038786;28;20950;-69
2022/08/15 00:56:24;;;;;;;11.97;10.87;;;20.50;99.90;;;;;;5021247;28;20116;-69
2022/08/15 00:58:50;;;;;;;13.02;11.75;;;20.50;99.90;;;;;;5027126;28;20128;-70
2022/08/15 01:01:17;;;;;;;13.48;12.35;;;20.40;99.90;;;;;;5029359;28;20044;-70
2022/08/15 01:03:45;;;;;;;13.10;11.95;;;20.30;99.90;;;;;;5025428;28;20041;-70
2022/08/15 01:06:11;;;;;;;13.75;12.35;;;20.20;99.90;;;;;;5008107;28;20046;-71
2022/08/15 01:08:41;;;;;;;13.48;12.27;;;20.20;99.90;;;;;;5028575;28;20041;-69
2022/08/15 01:11:17;;;;;;;11.77;10.68;;;20.20;99.90;;;;;;5029298;28;20073;-69
2022/08/15 01:13:44;;;;;;;12.57;11.57;;;20.20;99.90;;;;;;5027749;28;20124;-70
2022/08/15 01:16:10;;;;;;;12.60;11.50;;;20.20;99.90;;;;;;5030302;28;20037;-70
2022/08/15 01:18:37;;;;;;;12.70;11.60;;;20.20;99.90;;;;;;5019087;28;20030;-69
2022/08/15 01:21:12;;;;;;;14.43;12.93;;;20.20;99.90;;;;;;5044163;28;20120;-69
2022/08/15 01:24:17;;;;;;;15.63;14.13;;;20.10;99.90;;;;;;5025792;28;20163;-70
2022/08/15 01:26:44;;;;;;;14.93;13.60;;;20.10;99.90;;;;;;5034259;28;20037;-70
2022/08/15 01:29:12;;;;;;;14.55;13.07;;;20.20;99.90;;;;;;5010387;28;20033;-70
2022/08/15 01:31:37;;;;;;;14.45;13.15;;;20.20;99.90;;;;;;5029113;28;20041;-69
2022/08/15 01:34:03;;;;;;;14.15;12.75;;;20.10;99.90;;;;;;5028021;28;20412;-70
2022/08/15 01:36:31;;;;;;;12.90;11.80;;;20.20;99.90;;;;;;5026999;28;20494;-70
2022/08/15 01:39:10;;;;;;;12.75;11.65;;;20.20;99.90;;;;;;5028509;28;20491;-70
2022/08/15 01:42:01;;;;;;;12.88;11.77;;;20.30;99.90;;;;;;5026830;28;20422;-70
2022/08/15 01:44:35;;;;;;;13.43;12.32;;;20.30;99.90;;;;;;5026534;28;20081;-70
2022/08/15 01:47:14;;;;;;;13.50;12.38;;;20.40;99.90;;;;;;5033974;28;20061;-70
2022/08/15 01:49:53;;;;;;;13.68;12.57;;;20.40;99.90;;;;;;5032915;28;20042;-70
2022/08/15 01:52:23;;;;;;;13.70;12.50;;;20.50;99.90;;;;;;5031452;28;20083;-70
2022/08/15 01:54:53;;;;;;;14.85;13.45;;;20.50;99.90;;;;;;5029333;28;20114;-70
2022/08/15 01:57:19;;;;;;;14.65;13.27;;;20.50;99.90;;;;;;5029469;28;20043;-70
2022/08/15 01:59:54;;;;;;;12.60;11.50;;;20.50;99.90;;;;;;5026678;28;20150;-70
2022/08/15 02:02:19;;;;;;;14.25;12.93;;;20.60;99.90;;;;;;5031416;28;20046;-70
2022/08/15 02:04:45;;;;;;;14.40;13.13;;;20.70;99.90;;;;;;5032055;28;20087;-70
2022/08/15 02:07:17;;;;;;;13.82;12.55;;;20.80;99.90;;;;;;5013003;28;20037;-70
2022/08/15 02:09:44;;;;;;;14.50;13.00;;;20.80;99.90;;;;;;5029539;28;20041;-70
2022/08/15 02:12:11;;;;;;;14.60;13.23;;;20.80;99.90;;;;;;5023936;28;20132;-70
2022/08/15 02:14:41;;;;;;;13.88;12.63;;;21.00;99.90;;;;;;5030750;28;20045;-70
2022/08/15 02:17:11;;;;;;;15.05;13.55;;;21.00;99.90;;;;;;5032854;28;20052;-70
2022/08/15 02:19:37;;;;;;;13.57;12.38;;;21.00;99.90;;;;;;5030753;28;20124;-70
2022/08/15 02:22:08;;;;;;;13.48;12.27;;;21.00;99.90;;;;;;5030383;28;20064;-69
2022/08/15 02:24:34;;;;;;;12.80;11.75;;;21.00;99.90;;;;;;5027687;28;20096;-70
2022/08/15 02:27:01;;;;;;;12.73;11.52;;;21.10;99.90;;;;;;5030867;28;20040;-70
2022/08/15 02:29:28;;;;;;;13.07;12.02;;;21.10;99.90;;;;;;5027778;28;20064;-70
2022/08/15 02:31:59;;;;;;;13.98;12.65;;;21.10;99.90;;;;;;5025740;28;20038;-70
2022/08/15 02:34:25;;;;;;;15.30;13.70;;;21.10;99.90;;;;;;5020635;28;20057;-70
2022/08/15 02:36:52;;;;;;;14.10;12.85;;;21.00;99.90;;;;;;5029843;28;20034;-70
2022/08/15 02:39:18;;;;;;;13.20;12.00;;;21.00;99.90;;;;;;5029411;28;20499;-69
2022/08/15 02:41:51;;;;;;;14.32;12.98;;;21.00;99.90;;;;;;5026215;28;20050;-70
2022/08/15 02:44:19;;;;;;;14.43;13.20;;;21.00;99.90;;;;;;5020499;28;20479;-70
2022/08/15 02:46:44;;;;;;;13.90;12.60;;;20.90;99.90;;;;;;5030725;28;20052;-70
2022/08/15 02:49:13;;;;;;;13.43;12.13;;;20.90;99.90;;;;;;5028385;28;20037;-69
2022/08/15 02:51:41;;;;;;;13.80;12.50;;;20.90;99.90;;;;;;5029497;28;20042;-70
2022/08/15 02:54:09;;;;;;;13.43;12.13;;;20.90;99.90;;;;;;5033553;28;20437;-70
2022/08/15 02:56:35;;;;;;;14.13;12.75;;;20.90;99.90;;;;;;5030326;28;20462;-69
2022/08/15 02:59:02;;;;;;;15.10;13.65;;;20.90;99.90;;;;;;5029421;28;20060;-69
2022/08/15 03:01:29;;;;;;;15.57;14.18;;;21.00;99.90;;;;;;5028503;28;20037;-70
2022/08/15 03:03:56;;;;;;;13.82;12.45;;;21.00;99.90;;;;;;5030771;28;20131;-70
2022/08/15 03:06:25;;;;;;;13.73;12.60;;;21.00;99.90;;;;;;5030993;28;20041;-69
2022/08/15 03:08:53;;;;;;;13.68;12.48;;;21.00;99.90;;;;;;5030654;28;20132;-70
2022/08/15 03:11:19;;;;;;;13.85;12.57;;;21.00;99.90;;;;;;5029526;28;20694;-70
2022/08/15 03:13:44;;;;;;;14.55;13.35;;;21.00;99.90;;;;;;5027500;28;20041;-69
2022/08/15 03:16:12;;;;;;;14.10;12.90;;;21.00;99.90;;;;;;5028597;28;20079;-70
2022/08/15 03:18:41;;;;;;;13.50;12.25;;;20.80;99.90;;;;;;5028848;28;20685;-70
2022/08/15 03:21:14;;;;;;;16.90;15.30;;;20.80;99.90;;;;;;5025039;28;20034;-70
2022/08/15 03:23:48;;;;;;;16.05;14.75;;;20.60;99.90;;;;;;5027298;28;20123;-70
2022/08/15 03:26:19;;;;;;;16.05;14.65;;;20.50;99.90;;;;;;5031165;28;20156;-70
2022/08/15 03:28:45;;;;;;;16.50;15.00;;;20.50;99.90;;;;;;5027948;28;20052;-70
2022/08/15 03:31:12;;;;;;;16.55;15.05;;;20.40;99.90;;;;;;5016771;28;20570;-70
2022/08/15 03:33:40;;;;;;;16.63;15.15;;;20.40;99.90;;;;;;5024943;28;20081;-70
2022/08/15 03:36:07;;;;;;;16.45;14.95;;;20.30;99.90;;;;;;5023434;28;20045;-70
2022/08/15 03:38:32;;;;;;;16.98;15.57;;;20.30;99.90;;;;;;5024802;28;20138;-69
2022/08/15 03:40:59;;;;;;;16.90;15.50;;;20.20;99.90;;;;;;5029515;28;20410;-70
2022/08/15 03:43:28;;;;;;;16.30;15.00;;;20.10;99.90;;;;;;5019201;28;20077;-70
2022/08/15 03:46:00;;;;;;;15.93;14.45;;;20.10;99.90;;;;;;5024815;28;20029;-69
2022/08/15 03:48:29;;;;;;;15.55;14.15;;;20.10;99.90;;;;;;5013366;28;20056;-70
2022/08/15 03:50:56;;;;;;;15.15;13.85;;;20.10;99.90;;;;;;5018812;28;20423;-69
2022/08/15 03:53:22;;;;;;;15.27;13.88;;;20.10;99.90;;;;;;5031304;28;20053;-69
2022/08/15 03:55:48;;;;;;;15.10;13.77;;;20.10;99.90;;;;;;5033787;28;20063;-70
2022/08/15 03:58:14;;;;;;;15.80;14.52;;;20.00;99.90;;;;;;5028997;28;20195;-70
2022/08/15 04:00:45;;;;;;;15.43;13.82;;;20.00;99.90;;;;;;5025715;28;20049;-70
2022/08/15 04:03:22;;;;;;;16.65;15.05;;;20.00;99.90;;;;;;5044538;28;20052;-70
2022/08/15 04:05:52;;;;;;;16.25;14.82;;;20.00;99.90;;;;;;5012645;28;20045;-70
2022/08/15 04:08:20;;;;;;;16.35;14.90;;;20.00;99.90;;;;;;5027595;28;20038;-70
2022/08/15 04:10:50;;;;;;;16.60;15.07;;;19.90;99.90;;;;;;5028648;28;20103;-69
2022/08/15 04:13:18;;;;;;;16.33;14.90;;;19.90;99.90;;;;;;5030107;28;20040;-69
2022/08/15 04:15:44;;;;;;;17.38;15.55;;;19.90;99.90;;;;;;5026254;28;20363;-69
2022/08/15 04:18:09;;;;;;;16.77;15.27;;;19.90;99.90;;;;;;5029106;28;20418;-69
2022/08/15 04:20:37;;;;;;;16.15;14.65;;;19.90;99.90;;;;;;5029643;28;20042;-70
2022/08/15 04:23:03;;;;;;;17.35;15.85;;;19.90;99.90;;;;;;5028986;28;20709;-70
2022/08/15 04:25:35;;;;;;;16.45;15.02;;;19.90;99.90;;;;;;5044748;28;20059;-69
2022/08/15 04:28:04;;;;;;;15.93;14.68;;;19.90;99.90;;;;;;5027724;28;20419;-69
2022/08/15 04:30:37;;;;;;;17.35;15.85;;;19.90;99.90;;;;;;5027557;28;20042;-70
2022/08/15 04:33:27;;;;;;;17.23;15.60;;;19.90;99.90;;;;;;5010092;28;20450;-70
2022/08/15 04:35:57;;;;;;;17.15;15.43;;;19.90;99.90;;;;;;5024528;28;20078;-69
2022/08/15 04:38:23;;;;;;;16.67;15.18;;;19.90;99.90;;;;;;5028700;28;20053;-70
2022/08/15 04:40:49;;;;;;;16.52;15.00;;;19.90;99.90;;;;;;5027850;28;20601;-69
2022/08/15 04:43:16;;;;;;;18.92;16.02;;;19.90;99.90;;;;;;5028825;28;20045;-69
2022/08/15 04:45:42;;;;;;;16.83;15.13;;;19.90;99.90;;;;;;5022097;28;20049;-69
2022/08/15 04:48:10;;;;;;;16.65;15.07;;;19.90;99.90;;;;;;5028934;28;20040;-69
2022/08/15 04:50:38;;;;;;;16.65;15.15;;;19.90;99.90;;;;;;5028800;28;20048;-70
2022/08/15 04:53:07;;;;;;;16.98;15.38;;;20.00;99.90;;;;;;5030490;28;20047;-69
2022/08/15 04:55:35;;;;;;;16.58;15.15;;;20.00;99.90;;;;;;5034677;28;20045;-69
2022/08/15 04:58:01;;;;;;;16.35;14.80;;;19.90;99.90;;;;;;5029871;28;20053;-70
2022/08/15 05:00:29;;;;;;;16.35;14.88;;;20.00;99.90;;;;;;5026128;28;20077;-70
2022/08/15 05:03:05;;;;;;;14.48;13.27;;;20.00;99.90;;;;;;5024604;28;20095;-69
2022/08/15 05:05:34;;;;;;;15.25;13.95;;;20.10;99.90;;;;;;5029192;28;20425;-70
2022/08/15 05:08:00;;;;;;;15.60;14.20;;;20.10;99.90;;;;;;5029803;28;20029;-70
2022/08/15 05:10:27;;;;;;;14.63;13.35;;;20.20;99.90;;;;;;5029020;28;20049;-70
2022/08/15 05:12:52;;;;;;;14.77;13.57;;;20.30;99.90;;;;;;5031080;28;20038;-69
2022/08/15 05:15:20;;;;;;;13.98;12.85;;;20.40;99.90;;;;;;5029948;28;20108;-69
2022/08/15 05:17:46;;;;;;;14.85;13.60;;;20.60;99.90;;;;;;5031037;28;20383;-69
2022/08/15 05:20:13;;;;;;;14.80;13.60;;;20.70;99.90;;;;;;5025246;28;20030;-69
2022/08/15 05:23:04;;;;;;;14.88;13.52;;;20.70;99.90;;;;;;5030113;28;20069;-69
2022/08/15 05:25:33;;;;;;;14.20;12.95;;;20.80;99.90;;;;;;5020296;28;20033;-69
2022/08/15 05:27:59;;;;;;;14.50;13.18;;;20.90;99.90;;;;;;5024332;28;20045;-69
2022/08/15 05:30:25;;;;;;;14.88;13.50;;;21.00;99.90;;;;;;5047428;28;20033;-70
2022/08/15 05:33:05;;;;;;;15.02;13.63;;;21.10;99.90;;;;;;5033877;28;20052;-69
2022/08/15 05:35:31;;;;;;;14.70;13.40;;;21.20;99.90;;;;;;5037964;28;20086;-69
2022/08/15 05:38:04;;;;;;;14.18;12.88;;;21.30;99.90;;;;;;5039566;28;20444;-69
2022/08/15 05:40:43;;;;;;;14.38;13.13;;;21.30;99.90;;;;;;5050243;28;20045;-69
2022/08/15 05:43:18;;;;;;;13.43;12.30;;;21.30;99.90;;;;;;5051145;28;20129;-69
2022/08/15 05:46:25;;;;;;;14.20;13.00;;;21.40;99.90;;;;;;5032894;28;20065;-69
2022/08/15 05:49:16;;;;;;;13.70;12.50;;;21.50;99.90;;;;;;5033226;28;20128;-69
2022/08/15 05:52:12;;;;;;;13.40;12.35;;;21.60;99.90;;;;;;5033984;28;20045;-69
2022/08/15 05:54:49;;;;;;;13.27;12.18;;;21.70;99.90;;;;;;5041910;28;20041;-69
2022/08/15 05:57:31;;;;;;;13.98;12.85;;;21.90;99.90;;;;;;5027540;28;20037;-69
2022/08/15 06:00:01;;;;;;;14.43;13.07;;;21.90;99.90;;;;;;5019984;28;20446;-69
2022/08/15 06:02:32;;;;;;;13.32;12.00;;;22.00;99.90;;;;;;5025926;28;20045;-69
2022/08/15 06:05:04;;;;;;;13.45;12.25;;;22.10;99.90;;;;;;5027903;28;20049;-69
2022/08/15 06:07:32;;;;;;;13.70;12.45;;;22.10;99.90;;;;;;5027233;28;20646;-69
2022/08/15 06:10:23;;;;;;;14.05;12.95;;;22.20;99.90;;;;;;5013948;28;20041;-69
2022/08/15 06:12:50;;;;;;;13.70;12.50;;;22.20;99.90;;;;;;5049625;28;20044;-69
2022/08/15 06:15:27;;;;;;;15.82;14.57;;;22.20;99.90;;;;;;5052249;28;20494;-69
2022/08/15 06:18:00;;;;;;;14.85;13.57;;;22.30;99.90;;;;;;5052512;28;20049;-69
2022/08/15 06:20:36;;;;;;;14.10;12.90;;;22.40;99.90;;;;;;5053521;28;20550;-69
2022/08/15 06:23:34;;;;;;;14.93;13.70;;;22.40;99.90;;;;;;5029933;28;20077;-69
2022/08/15 06:26:38;;;;;;;14.48;13.23;;;22.50;99.90;;;;;;5044041;28;20136;-69
2022/08/15 06:29:11;;;;;;;15.00;13.52;;;22.50;99.90;;;;;;5036225;28;20056;-69
2022/08/15 06:31:41;;;;;;;58.63;14.75;;;22.60;99.90;;;;;;5038148;28;20167;-69
2022/08/15 06:34:29;;;;;;;56.13;14.95;;;22.60;99.90;;;;;;5052078;28;20060;-69
2022/08/15 06:37:02;;;;;;;20.38;12.55;;;22.80;99.90;;;;;;5033626;28;20080;-70
2022/08/15 06:39:41;;;;;;;12.38;10.88;;;22.90;99.90;;;;;;5032693;28;20064;-70
2022/08/15 06:42:34;;;;;;;11.93;10.93;;;23.10;99.90;;;;;;5032092;28;20041;-69
2022/08/15 06:45:22;;;;;;;11.88;10.88;;;23.10;99.90;;;;;;5031046;28;20038;-69
2022/08/15 06:47:51;;;;;;;14.68;10.93;;;23.20;99.90;;;;;;5020111;28;20072;-70
2022/08/15 06:50:26;;;;;;;12.65;11.40;;;23.50;99.90;;;;;;5033124;28;20383;-69
2022/08/15 06:52:56;;;;;;;11.15;10.02;;;23.90;99.90;;;;;;5067917;22;20100;-67
2022/08/15 06:55:25;;;;;;;12.00;11.00;;;24.20;99.90;;;;;;5093553;28;20123;-68
2022/08/15 06:58:00;;;;;;;12.80;11.82;;;24.70;99.10;;;;;;5101464;28;20046;-67
2022/08/15 07:00:42;;;;;;;11.20;10.15;;;24.90;99.50;;;;;;5069721;28;20085;-67
2022/08/15 07:03:19;;;;;;;11.68;10.68;;;24.90;99.50;;;;;;5091269;28;20044;-67
2022/08/15 07:05:55;;;;;;;11.63;10.73;;;24.70;98.60;;;;;;5090738;28;20488;-67
2022/08/15 07:08:42;;;;;;;11.27;10.13;;;24.80;98.70;;;;;;5074616;28;20028;-67
2022/08/15 07:11:22;;;;;;;12.75;10.70;;;25.50;97.80;;;;;;5091435;28;20046;-67
2022/08/15 07:13:54;;;;;;;11.07;9.75;;;25.50;97.10;;;;;;5111287;28;20047;-67
2022/08/15 07:16:23;;;;;;;;;;;25.40;97.40;;;;;;5106020;28;20048;-67
2022/08/15 07:18:53;;;;;;;16.58;10.32;;;25.20;97.30;;;;;;5095867;28;19927;-67
2022/08/15 07:21:22;;;;;;;10.45;9.65;;;25.20;98.30;;;;;;5089513;28;20044;-67
2022/08/15 07:24:21;;;;;;;10.27;9.35;;;25.10;98.40;;;;;;5089845;28;20044;-67
2022/08/15 07:26:46;;;;;;;10.95;9.98;;;25.00;97.20;;;;;;5090847;28;20043;-67
2022/08/15 07:29:24;;;;;;;10.93;9.80;;;24.70;97.50;;;;;;5090496;28;20086;-67
2022/08/15 07:31:58;;;;;;;10.30;9.32;;;24.60;97.70;;;;;;5091260;28;20118;-67
2022/08/15 07:34:24;;;;;;;10.80;9.70;;;24.50;98.40;;;;;;5089792;28;20534;-67
2022/08/15 07:37:03;;;;;;;12.80;10.23;;;24.50;97.00;;;;;;5085487;28;20032;-67
2022/08/15 07:39:37;;;;;;;13.32;10.27;;;24.50;97.90;;;;;;5089736;28;20511;-67
2022/08/15 07:42:16;;;;;;;11.98;10.20;;;24.40;97.60;;;;;;5093463;28;20086;-67
2022/08/15 07:44:51;;;;;;;11.82;10.55;;;24.50;97.70;;;;;;5110207;28;20132;-67
2022/08/15 07:47:24;;;;;;;10.45;9.55;;;24.60;97.20;;;;;;5112659;28;20071;-67
2022/08/15 07:50:04;;;;;;;11.02;10.02;;;24.70;97.40;;;;;;5103478;28;20035;-67
2022/08/15 07:52:31;;;;;;;11.98;10.75;;;24.90;97.10;;;;;;5090965;28;20074;-68
2022/08/15 07:55:11;;;;;;;11.75;10.75;;;25.00;96.50;;;;;;5069142;28;20036;-67
2022/08/15 07:57:39;;;;;;;10.98;9.98;;;25.10;96.00;;;;;;5082071;28;20480;-67
2022/08/15 08:00:14;;;;;;;11.38;10.07;;;25.20;96.80;;;;;;5102708;28;20044;-67
2022/08/15 08:03:00;;;;;;;14.35;10.75;;;25.40;96.00;;;;;;5089786;28;20051;-67
2022/08/15 08:05:31;;;;;;;13.07;10.82;;;25.50;95.80;;;;;;5091195;28;20044;-67
2022/08/15 08:08:01;;;;;;;10.95;9.50;;;25.60;96.00;;;;;;5086306;28;20036;-67
2022/08/15 08:10:32;;;;;;;10.93;9.18;;;25.60;95.50;;;;;;5087138;28;20052;-67
2022/08/15 08:13:16;;;;;;;;;;;25.70;95.10;;;;;;5087666;28;20051;-67
2022/08/15 08:15:53;;;;;;;12.80;9.90;;;25.80;95.50;;;;;;5081244;28;19934;-67
2022/08/15 08:18:46;;;;;;;9.88;8.55;;;25.90;94.80;;;;;;5081685;28;20070;-67
2022/08/15 08:21:18;;;;;;;9.98;9.00;;;26.20;95.20;;;;;;5061351;28;20039;-67
2022/08/15 08:23:48;;;;;;;9.20;8.30;;;26.30;94.20;;;;;;5082506;28;20070;-67
2022/08/15 08:26:45;;;;;;;10.45;8.55;;;26.50;94.60;;;;;;5078092;28;20428;-67
2022/08/15 08:29:45;;;;;;;10.52;8.90;;;26.60;93.60;;;;;;5083453;28;20068;-67
2022/08/15 08:32:21;;;;;;;8.73;7.93;;;26.50;94.00;;;;;;5086589;28;20040;-67
2022/08/15 08:35:05;;;;;;;9.30;8.40;;;26.60;93.60;;;;;;5079070;28;20055;-67
2022/08/15 08:38:00;;;;;;;10.50;7.90;;;26.60;93.50;;;;;;5082383;28;20054;-67
2022/08/15 08:43:46;;;;;;;9.07;8.20;;;26.80;94.10;;;;;;5079572;28;20048;-67
2022/08/15 08:46:31;;;;;;;8.52;7.82;;;27.20;93.50;;;;;;5089518;28;20039;-67
2022/08/15 08:49:10;;;;;;;8.98;8.15;;;27.50;92.90;;;;;;5089136;28;20409;-67
2022/08/15 08:52:08;;;;;;;8.73;7.82;;;27.50;91.80;;;;;;5071913;28;20098;-67
2022/08/15 08:55:02;;;;;;;8.82;7.95;;;27.60;92.00;;;;;;5085682;28;20063;-67
2022/08/15 08:57:40;;;;;;;8.43;6.82;;;27.50;90.90;;;;;;5053092;28;20044;-67
2022/08/15 09:00:18;;;;;;;8.73;7.60;;;27.60;91.80;;;;;;5098927;28;20044;-67
2022/08/15 09:02:56;;;;;;;9.25;6.95;;;27.70;92.00;;;;;;5088775;28;20040;-67
2022/08/15 09:05:22;;;;;;;14.48;7.68;;;27.80;92.40;;;;;;5080862;28;20050;-67
2022/08/15 09:07:54;;;;;;;9.45;7.40;;;28.00;92.80;;;;;;5090955;28;20048;-67
2022/08/15 09:10:32;;;;;;;11.43;7.20;;;28.10;92.40;;;;;;5089219;28;20036;-67
2022/08/15 09:15:48;;;;;;;8.43;7.25;;;28.20;91.60;;;;;;5093963;28;20418;-67
2022/08/15 09:18:24;;;;;;;10.15;7.10;;;28.50;91.30;;;;;;5079304;28;20071;-67
2022/08/15 09:20:49;;;;;;;12.07;7.90;;;28.70;91.70;;;;;;5090757;28;20044;-67
2022/08/15 09:23:15;;;;;;;8.70;7.90;;;28.90;90.40;;;;;;5106261;28;20165;-67
2022/08/15 09:26:07;;;;;;;15.40;8.45;;;28.90;90.20;;;;;;5090888;28;20412;-67
2022/08/15 09:28:37;;;;;;;8.30;7.50;;;29.00;87.60;;;;;;5084317;28;20431;-67
2022/08/15 09:31:12;;;;;;;9.90;7.82;;;28.90;88.20;;;;;;5085655;28;20417;-67
2022/08/15 09:34:00;;;;;;;11.30;7.68;;;29.10;88.20;;;;;;5100321;28;20050;-67
2022/08/15 09:36:52;;;;;;;7.97;6.97;;;29.30;89.10;;;;;;5071824;28;20064;-67
2022/08/15 09:39:59;;;;;;;11.27;6.75;;;29.30;85.20;;;;;;5072652;28;20119;-67
2022/08/15 09:42:31;;;;;;;8.82;6.63;;;29.40;86.10;;;;;;5086657;28;20051;-67
2022/08/15 09:45:10;;;;;;;9.68;6.20;;;29.50;86.80;;;;;;5092432;28;20039;-67
2022/08/15 09:47:50;;;;;;;9.80;7.18;;;29.50;88.20;;;;;;5092571;28;20055;-67
2022/08/15 09:50:34;;;;;;;7.35;6.50;;;29.40;87.10;;;;;;5091234;28;20047;-67
2022/08/15 09:53:14;;;;;;;11.75;7.03;;;29.40;88.40;;;;;;5087318;28;20074;-67
2022/08/15 09:55:44;;;;;;;9.52;7.05;;;29.50;88.80;;;;;;5087474;28;20040;-67
2022/08/15 09:58:20;;;;;;;7.90;7.20;;;29.70;88.90;;;;;;5067997;28;20032;-67
2022/08/15 10:01:03;;;;;;;8.27;7.15;;;29.90;87.70;;;;;;5091545;28;20130;-67
2022/08/15 10:03:43;;;;;;;9.07;6.80;;;30.00;85.00;;;;;;5081756;28;20094;-67
2022/08/15 10:06:32;;;;;;;10.25;7.32;;;30.00;84.00;;;;;;5087679;28;20465;-67
2022/08/15 10:09:16;;;;;;;7.95;7.10;;;30.00;83.40;;;;;;5089563;28;20036;-67
2022/08/15 10:11:41;;;;;;;8.65;7.22;;;30.00;83.90;;;;;;5085033;28;20051;-67
2022/08/15 10:14:08;;;;;;;10.30;7.47;;;30.00;84.30;;;;;;5088514;28;20032;-67
2022/08/15 10:16:38;;;;;;;8.52;6.95;;;29.90;84.40;;;;;;5099063;28;20524;-67
2022/08/15 10:19:08;;;;;;;9.15;8.20;;;30.00;85.00;;;;;;5088588;28;20407;-67
2022/08/15 10:21:44;;;;;;;9.82;7.93;;;30.10;83.00;;;;;;5087047;28;20040;-67
2022/08/15 10:24:38;;;;;;;12.15;7.68;;;30.40;83.90;;;;;;5075297;28;20080;-67
2022/08/15 10:27:09;;;;;;;8.95;6.97;;;30.60;82.50;;;;;;5092190;28;20106;-67
2022/08/15 10:29:37;;;;;;;8.70;8.00;;;30.70;83.00;;;;;;5092215;28;20474;-67
2022/08/15 10:32:04;;;;;;;9.00;8.30;;;30.80;81.30;;;;;;5082694;28;20080;-67
2022/08/15 10:34:41;;;;;;;8.40;7.65;;;30.70;80.30;;;;;;5080226;28;20140;-67
2022/08/15 10:37:24;;;;;;;8.80;7.88;;;30.60;81.30;;;;;;5091422;28;20040;-67
2022/08/15 10:40:12;;;;;;;7.32;6.82;;;30.70;81.70;;;;;;5089097;28;20059;-67
2022/08/15 10:43:12;;;;;;;9.65;8.65;;;30.80;83.00;;;;;;5097842;28;20058;-67
2022/08/15 10:45:46;;;;;;;9.73;8.82;;;30.80;82.30;;;;;;5096483;28;20044;-67
2022/08/15 10:48:49;;;;;;;9.43;8.63;;;30.70;82.20;;;;;;5090305;28;20496;-67
2022/08/15 10:51:46;;;;;;;9.55;8.65;;;30.60;81.40;;;;;;5082921;28;20055;-67
2022/08/15 10:54:45;;;;;;;9.55;8.82;;;30.50;80.90;;;;;;5100183;28;20712;-67
2022/08/15 10:57:15;;;;;;;11.18;9.80;;;30.40;81.80;;;;;;5089861;28;20071;-67
2022/08/15 10:59:45;;;;;;;15.00;10.00;;;30.20;81.30;;;;;;5090777;28;20440;-67
2022/08/15 11:02:31;;;;;;;14.05;12.82;;;30.10;81.40;;;;;;5091250;28;20310;-67
2022/08/15 11:05:09;;;;;;;11.63;10.73;;;29.80;81.90;;;;;;5072177;28;20044;-67
2022/08/15 11:07:38;;;;;;;12.55;11.52;;;29.60;83.60;;;;;;5091073;28;20039;-67
2022/08/15 11:10:09;;;;;;;14.75;13.35;;;29.40;84.50;;;;;;5091919;28;20089;-67
2022/08/15 11:12:36;;;;;;;13.60;12.20;;;29.10;84.50;;;;;;5073431;28;20044;-67
2022/08/15 11:15:17;;;;;;;14.18;12.80;;;28.90;85.60;;;;;;5090568;28;20059;-67
2022/08/15 11:17:50;;;;;;;;;;;28.60;90.20;;;;;;5087384;28;20652;-67
2022/08/15 11:20:21;;;;;;;13.85;12.25;;;28.50;87.50;;;;;;5091302;28;20015;-67
2022/08/15 11:23:00;;;;;;;14.20;13.00;;;28.20;90.20;;;;;;5091306;28;20127;-67
2022/08/15 11:25:30;;;;;;;15.05;13.65;;;28.10;90.30;;;;;;5091088;28;20151;-67
2022/08/15 11:28:11;;;;;;;14.27;12.88;;;28.00;90.30;;;;;;5091087;28;20515;-67
2022/08/15 11:30:40;;;;;;;14.10;12.80;;;28.00;92.00;;;;;;5099607;28;20032;-67
2022/08/15 11:33:23;;;;;;;15.68;14.00;;;27.90;90.90;;;;;;5111531;28;20039;-67
2022/08/15 11:36:03;;;;;;;15.77;14.15;;;28.00;91.60;;;;;;5090460;28;20044;-67
2022/08/15 11:38:31;;;;;;;13.05;12.05;;;28.00;91.60;;;;;;5091084;28;20095;-67
2022/08/15 11:40:59;;;;;;;14.55;13.07;;;28.10;90.60;;;;;;5090777;28;20087;-67
2022/08/15 11:43:26;;;;;;;15.55;14.20;;;28.20;90.50;;;;;;5087972;28;20120;-67
2022/08/15 11:45:53;;;;;;;15.45;13.93;;;28.30;90.40;;;;;;5090541;28;20089;-67
2022/08/15 11:48:33;;;;;;;15.85;14.25;;;28.30;91.10;;;;;;5091435;28;20115;-67
2022/08/15 11:51:07;;;;;;;13.65;12.32;;;28.40;90.00;;;;;;5090547;28;20044;-67
2022/08/15 11:53:41;;;;;;;14.15;12.77;;;28.50;91.60;;;;;;5090557;28;20060;-67
2022/08/15 11:56:07;;;;;;;14.48;13.07;;;28.50;92.20;;;;;;5090641;28;20054;-67
2022/08/15 11:58:44;;;;;;;13.60;12.27;;;28.40;91.60;;;;;;5090532;28;20048;-67
2022/08/15 12:01:31;;;;;;;13.75;12.55;;;28.40;92.00;;;;;;5080577;28;20043;-67
2022/08/15 12:04:03;;;;;;;12.43;11.43;;;28.40;91.20;;;;;;5087121;28;20044;-66
2022/08/15 12:06:35;;;;;;;14.70;13.20;;;28.30;91.30;;;;;;5085470;28;20036;-67
2022/08/15 12:09:06;;;;;;;13.57;12.43;;;28.20;92.00;;;;;;5087065;28;20409;-67
2022/08/15 12:11:37;;;;;;;12.70;11.57;;;28.10;91.70;;;;;;5087193;28;20048;-66
2022/08/15 12:14:14;;;;;;;12.50;11.45;;;28.00;90.70;;;;;;5090557;28;20486;-66
2022/08/15 12:16:45;;;;;;;11.73;10.52;;;28.00;91.70;;;;;;5073071;28;20089;-67
2022/08/15 12:19:29;;;;;;;11.40;10.40;;;28.00;92.00;;;;;;5091090;28;20063;-66
2022/08/15 12:21:58;;;;;;;11.20;10.30;;;28.00;91.30;;;;;;5090470;28;20486;-66
2022/08/15 12:24:28;;;;;;;12.60;11.48;;;28.00;91.00;;;;;;5086111;28;20055;-67
2022/08/15 12:27:00;;;;;;;12.73;11.43;;;28.10;90.90;;;;;;5087058;28;20044;-67
2022/08/15 12:29:27;;;;;;;12.02;10.80;;;28.10;91.20;;;;;;5088244;28;20101;-67
2022/08/15 12:31:53;;;;;;;11.70;10.50;;;28.20;91.40;;;;;;5072904;28;20043;-67
2022/08/15 12:34:20;;;;;;;12.60;11.50;;;28.30;91.20;;;;;;5089333;28;20504;-67
2022/08/15 12:36:46;;;;;;;11.05;10.15;;;28.40;90.80;;;;;;5092767;28;20489;-67
2022/08/15 12:39:14;;;;;;;12.43;11.23;;;28.40;90.80;;;;;;5098895;28;20043;-67
2022/08/15 12:41:43;;;;;;;12.80;11.70;;;28.50;91.30;;;;;;5101083;28;20511;-67
2022/08/15 12:44:23;;;;;;;16.05;14.75;;;28.50;91.80;;;;;;5082083;28;20481;-67
2022/08/15 12:46:49;;;;;;;15.27;13.77;;;28.60;91.40;;;;;;5085904;28;20085;-67
2022/08/15 12:49:16;;;;;;;14.77;13.57;;;28.50;91.30;;;;;;5088807;28;20035;-67
2022/08/15 12:51:41;;;;;;;12.88;11.77;;;28.60;91.70;;;;;;5080785;28;20065;-67
2022/08/15 12:54:07;;;;;;;11.23;10.23;;;28.60;91.20;;;;;;5090624;28;20052;-67
2022/08/15 12:56:33;;;;;;;10.18;9.27;;;28.60;90.70;;;;;;5089690;28;20493;-67
2022/08/15 12:59:05;;;;;;;11.73;10.57;;;28.50;90.60;;;;;;5089607;28;20466;-67
2022/08/15 13:01:32;;;;;;;10.15;9.27;;;28.60;90.70;;;;;;5069529;28;20041;-66
2022/08/15 13:04:02;;;;;;;9.98;9.18;;;28.60;90.00;;;;;;5085060;28;20032;-67
2022/08/15 13:06:42;;;;;;;9.57;8.70;;;28.60;89.50;;;;;;5089848;28;20374;-67
2022/08/15 13:09:09;;;;;;;9.50;8.63;;;28.60;89.70;;;;;;5090918;28;20039;-67
2022/08/15 13:11:39;;;;;;;10.00;9.05;;;28.70;89.60;;;;;;5084111;28;20120;-67
2022/08/15 13:14:05;;;;;;;10.07;9.18;;;28.70;89.80;;;;;;5079341;28;20048;-67